KTWF/TWF METAR and TAF weather

Enter ICAO airport designator
Station Type Date Time Source
KTWF METAR 2020/08/12 17:53 UTC NOAA

KTWF 121753Z 33010KT 10SM CLR 28/06 A3002 RMK AO2 SLP104 T02780056 10278 20178 51005


Station Type Date Time Source
KTWF Decoded METAR 2020/08/12 17:53 UTC NOAA

JOSLIN FLD-MAGIC VALLEY REGL, ID, United States (KTWF) 42-29N 114-29W 1266M
Aug 12, 2020 - 01:53 PM EDT / 2020.08.12 1753 UTC
Wind: from the NNW (330 degrees) at 12 MPH (10 KT):0
Visibility: 10 mile(s):0
Sky conditions: clear
Temperature: 82.0 F (27.8 C)
Dew Point: 42.1 F (5.6 C)
Relative Humidity: 24%
Pressure (altimeter): 30.02 in. Hg (1016 hPa)
Pressure tendency: 0.01 inches (0.5 hPa) higher than three hours ago
ob: KTWF 121753Z 33010KT 10SM CLR 28/06 A3002 RMK AO2 SLP104 T02780056 10278 20178 51005
cycle: 18

Station Type Date Time Source
KTWF TAF 2020/08/12 18:51 UTC NOAA

TAF KTWF 121740Z 1218/1318 28013G21KT P6SM SCT200
FM130400 21010KT P6SM SCT200
FM131700 27012G20KT P6SM FEW200

Example: see airport list